• location
  • image
Airport

AP V2 EN

 

 

Click here to view short presentation ->

Today

Saturday, 18 April 2015

Weather Forecast

Siauliai 7 °C
   

Aviation Weather Forecast

[source: ADDS]
METAR
EYSA 181450Z 32012KT 9999 SCT043 BKN066 07/M02 Q1013 =
TAF
TAF EYSA 181400Z 1815/1824 34012KT 8000 BKN020 =
SR / SS: 03:17 / 17:37 UTC (EYSA 2015-04-18)

Who's Online

We have 5 guests online

tic logo en